sensor_id;sensor_type;location;lat;lon;timestamp;temperature;humidity
30459;DHT22;74163;50.912;6.918;2023-12-29T00:00:09;10.70;85.00
30459;DHT22;74163;50.912;6.918;2023-12-29T00:00:42;10.70;84.90
30459;DHT22;74163;50.912;6.918;2023-12-29T00:01:14;10.70;84.90
30459;DHT22;74163;50.912;6.918;2023-12-29T00:01:46;10.80;84.90
30459;DHT22;74163;50.912;6.918;2023-12-29T00:02:19;10.80;84.70
30459;DHT22;74163;50.912;6.918;2023-12-29T00:02:51;10.80;84.50
30459;DHT22;74163;50.912;6.918;2023-12-29T00:03:23;10.80;84.50
30459;DHT22;74163;50.912;6.918;2023-12-29T00:03:55;10.80;84.40
30459;DHT22;74163;50.912;6.918;2023-12-29T00:04:27;10.80;84.00
30459;DHT22;74163;50.912;6.918;2023-12-29T00:04:58;10.90;83.80
30459;DHT22;74163;50.912;6.918;2023-12-29T00:05:30;10.90;83.70
30459;DHT22;74163;50.912;6.918;2023-12-29T00:06:03;10.90;83.50
30459;DHT22;74163;50.912;6.918;2023-12-29T00:06:37;10.90;83.50
30459;DHT22;74163;50.912;6.918;2023-12-29T00:07:24;10.90;83.40
30459;DHT22;74163;50.912;6.918;2023-12-29T00:07:56;10.90;83.10
30459;DHT22;74163;50.912;6.918;2023-12-29T00:08:28;11.00;83.20
30459;DHT22;74163;50.912;6.918;2023-12-29T00:09:00;11.00;83.00
30459;DHT22;74163;50.912;6.918;2023-12-29T00:09:32;11.00;82.90
30459;DHT22;74163;50.912;6.918;2023-12-29T00:10:05;11.00;82.80
30459;DHT22;74163;50.912;6.918;2023-12-29T00:10:37;11.00;82.80
30459;DHT22;74163;50.912;6.918;2023-12-29T00:11:16;11.00;82.60
30459;DHT22;74163;50.912;6.918;2023-12-29T00:11:50;11.00;82.60
30459;DHT22;74163;50.912;6.918;2023-12-29T00:12:22;11.00;82.50
30459;DHT22;74163;50.912;6.918;2023-12-29T00:12:54;11.10;82.60
30459;DHT22;74163;50.912;6.918;2023-12-29T00:13:25;11.00;82.60
30459;DHT22;74163;50.912;6.918;2023-12-29T00:13:57;11.00;82.50
30459;DHT22;74163;50.912;6.918;2023-12-29T00:14:29;11.10;82.50
30459;DHT22;74163;50.912;6.918;2023-12-29T00:15:01;11.00;82.40
30459;DHT22;74163;50.912;6.918;2023-12-29T00:15:33;11.00;82.30
30459;DHT22;74163;50.912;6.918;2023-12-29T00:16:05;11.10;82.30
30459;DHT22;74163;50.912;6.918;2023-12-29T00:16:37;11.00;82.20
30459;DHT22;74163;50.912;6.918;2023-12-29T00:17:09;11.00;82.10
30459;DHT22;74163;50.912;6.918;2023-12-29T00:17:43;11.00;82.30
30459;DHT22;74163;50.912;6.918;2023-12-29T00:18:14;11.10;82.20
30459;DHT22;74163;50.912;6.918;2023-12-29T00:18:47;11.00;82.20
30459;DHT22;74163;50.912;6.918;2023-12-29T00:19:20;11.00;82.10
30459;DHT22;74163;50.912;6.918;2023-12-29T00:19:52;11.00;82.00
30459;DHT22;74163;50.912;6.918;2023-12-29T00:20:24;11.10;81.90
30459;DHT22;74163;50.912;6.918;2023-12-29T00:21:11;11.10;81.90
30459;DHT22;74163;50.912;6.918;2023-12-29T00:21:43;11.00;81.70
30459;DHT22;74163;50.912;6.918;2023-12-29T00:22:15;11.00;81.60
30459;DHT22;74163;50.912;6.918;2023-12-29T00:22:47;11.10;81.70
30459;DHT22;74163;50.912;6.918;2023-12-29T00:23:19;11.00;81.60
30459;DHT22;74163;50.912;6.918;2023-12-29T00:23:51;11.10;81.80
30459;DHT22;74163;50.912;6.918;2023-12-29T00:24:23;11.00;82.30
30459;DHT22;74163;50.912;6.918;2023-12-29T00:24:55;11.00;81.70
30459;DHT22;74163;50.912;6.918;2023-12-29T00:25:27;11.00;81.70
30459;DHT22;74163;50.912;6.918;2023-12-29T00:25:59;11.00;81.80
30459;DHT22;74163;50.912;6.918;2023-12-29T00:26:31;11.10;81.80
30459;DHT22;74163;50.912;6.918;2023-12-29T00:27:05;11.10;81.90
30459;DHT22;74163;50.912;6.918;2023-12-29T00:27:37;11.10;81.90
30459;DHT22;74163;50.912;6.918;2023-12-29T00:28:09;11.10;81.90
30459;DHT22;74163;50.912;6.918;2023-12-29T00:28:41;11.00;81.70
30459;DHT22;74163;50.912;6.918;2023-12-29T00:29:14;11.10;81.60
30459;DHT22;74163;50.912;6.918;2023-12-29T00:29:45;11.10;81.60
30459;DHT22;74163;50.912;6.918;2023-12-29T00:30:17;11.10;81.70
30459;DHT22;74163;50.912;6.918;2023-12-29T00:30:50;11.10;81.60
30459;DHT22;74163;50.912;6.918;2023-12-29T00:31:32;11.10;81.60
30459;DHT22;74163;50.912;6.918;2023-12-29T00:32:04;11.10;81.60
30459;DHT22;74163;50.912;6.918;2023-12-29T00:32:37;11.10;81.50
30459;DHT22;74163;50.912;6.918;2023-12-29T00:33:10;11.00;81.50
30459;DHT22;74163;50.912;6.918;2023-12-29T00:33:42;11.10;81.50
30459;DHT22;74163;50.912;6.918;2023-12-29T00:34:14;11.00;81.50
30459;DHT22;74163;50.912;6.918;2023-12-29T00:34:46;11.00;81.50
30459;DHT22;74163;50.912;6.918;2023-12-29T00:35:18;11.10;81.70
30459;DHT22;74163;50.912;6.918;2023-12-29T00:35:49;11.00;81.60
30459;DHT22;74163;50.912;6.918;2023-12-29T00:36:21;11.00;81.60
30459;DHT22;74163;50.912;6.918;2023-12-29T00:36:54;11.10;81.80
30459;DHT22;74163;50.912;6.918;2023-12-29T00:37:26;11.00;81.60
30459;DHT22;74163;50.912;6.918;2023-12-29T00:37:58;11.00;81.70
30459;DHT22;74163;50.912;6.918;2023-12-29T00:38:30;11.10;81.60
30459;DHT22;74163;50.912;6.918;2023-12-29T00:39:02;11.10;81.40
30459;DHT22;74163;50.912;6.918;2023-12-29T00:39:35;11.10;81.30
30459;DHT22;74163;50.912;6.918;2023-12-29T00:40:08;11.10;81.20
30459;DHT22;74163;50.912;6.918;2023-12-29T00:40:40;11.10;81.30
30459;DHT22;74163;50.912;6.918;2023-12-29T00:41:11;11.10;81.50
30459;DHT22;74163;50.912;6.918;2023-12-29T00:41:43;11.00;81.30
30459;DHT22;74163;50.912;6.918;2023-12-29T00:42:17;11.10;81.40
30459;DHT22;74163;50.912;6.918;2023-12-29T00:42:49;11.10;81.50
30459;DHT22;74163;50.912;6.918;2023-12-29T00:43:21;11.00;81.50
30459;DHT22;74163;50.912;6.918;2023-12-29T00:43:53;11.10;81.40
30459;DHT22;74163;50.912;6.918;2023-12-29T00:44:25;11.10;81.30
30459;DHT22;74163;50.912;6.918;2023-12-29T00:44:57;11.00;81.20
30459;DHT22;74163;50.912;6.918;2023-12-29T00:45:29;11.10;81.10
30459;DHT22;74163;50.912;6.918;2023-12-29T00:46:01;11.10;81.10
30459;DHT22;74163;50.912;6.918;2023-12-29T00:46:33;11.10;81.20
30459;DHT22;74163;50.912;6.918;2023-12-29T00:47:05;11.10;81.30
30459;DHT22;74163;50.912;6.918;2023-12-29T00:47:37;11.10;81.30
30459;DHT22;74163;50.912;6.918;2023-12-29T00:48:10;11.10;81.30
30459;DHT22;74163;50.912;6.918;2023-12-29T00:48:42;11.20;81.20
30459;DHT22;74163;50.912;6.918;2023-12-29T00:49:15;11.10;81.00
30459;DHT22;74163;50.912;6.918;2023-12-29T00:49:47;11.10;81.00
30459;DHT22;74163;50.912;6.918;2023-12-29T00:50:19;11.10;80.70
30459;DHT22;74163;50.912;6.918;2023-12-29T00:50:50;11.10;80.60
30459;DHT22;74163;50.912;6.918;2023-12-29T00:51:22;11.10;80.60
30459;DHT22;74163;50.912;6.918;2023-12-29T00:51:55;11.10;80.60
30459;DHT22;74163;50.912;6.918;2023-12-29T00:52:27;11.10;80.80
30459;DHT22;74163;50.912;6.918;2023-12-29T00:52:59;11.10;80.80
30459;DHT22;74163;50.912;6.918;2023-12-29T00:53:31;11.10;80.90
30459;DHT22;74163;50.912;6.918;2023-12-29T00:54:03;11.10;81.00
30459;DHT22;74163;50.912;6.918;2023-12-29T00:54:35;11.10;81.10
30459;DHT22;74163;50.912;6.918;2023-12-29T00:55:07;11.10;81.00
30459;DHT22;74163;50.912;6.918;2023-12-29T00:55:40;11.10;80.90
30459;DHT22;74163;50.912;6.918;2023-12-29T00:56:12;11.10;80.70
30459;DHT22;74163;50.912;6.918;2023-12-29T00:56:48;11.10;80.50
30459;DHT22;74163;50.912;6.918;2023-12-29T00:57:20;11.10;80.50
30459;DHT22;74163;50.912;6.918;2023-12-29T00:57:52;11.10;80.40
30459;DHT22;74163;50.912;6.918;2023-12-29T00:58:24;11.10;80.30
30459;DHT22;74163;50.912;6.918;2023-12-29T00:58:57;11.10;80.30
30459;DHT22;74163;50.912;6.918;2023-12-29T00:59:29;11.10;80.10
30459;DHT22;74163;50.912;6.918;2023-12-29T01:00:01;11.10;80.10
30459;DHT22;74163;50.912;6.918;2023-12-29T01:00:33;11.10;80.10
30459;DHT22;74163;50.912;6.918;2023-12-29T01:01:07;11.10;80.00
30459;DHT22;74163;50.912;6.918;2023-12-29T01:01:40;11.10;80.10
30459;DHT22;74163;50.912;6.918;2023-12-29T01:02:11;11.20;80.10
30459;DHT22;74163;50.912;6.918;2023-12-29T01:02:43;11.20;79.90
30459;DHT22;74163;50.912;6.918;2023-12-29T01:03:18;11.10;79.90
30459;DHT22;74163;50.912;6.918;2023-12-29T01:03:52;11.20;79.90
30459;DHT22;74163;50.912;6.918;2023-12-29T01:04:24;11.20;80.00
30459;DHT22;74163;50.912;6.918;2023-12-29T01:04:56;11.30;80.00
30459;DHT22;74163;50.912;6.918;2023-12-29T01:05:29;11.20;80.00
30459;DHT22;74163;50.912;6.918;2023-12-29T01:06:01;11.20;80.00
30459;DHT22;74163;50.912;6.918;2023-12-29T01:06:33;11.20;80.00
30459;DHT22;74163;50.912;6.918;2023-12-29T01:07:05;11.30;80.20
30459;DHT22;74163;50.912;6.918;2023-12-29T01:07:36;11.20;80.10
30459;DHT22;74163;50.912;6.918;2023-12-29T01:08:08;11.20;80.20
30459;DHT22;74163;50.912;6.918;2023-12-29T01:08:40;11.20;80.00
30459;DHT22;74163;50.912;6.918;2023-12-29T01:09:15;11.20;80.00
30459;DHT22;74163;50.912;6.918;2023-12-29T01:09:47;11.20;80.10
30459;DHT22;74163;50.912;6.918;2023-12-29T01:10:18;11.20;80.00
30459;DHT22;74163;50.912;6.918;2023-12-29T01:10:50;11.20;80.00
30459;DHT22;74163;50.912;6.918;2023-12-29T01:11:23;11.20;80.00
30459;DHT22;74163;50.912;6.918;2023-12-29T01:11:55;11.20;79.80
30459;DHT22;74163;50.912;6.918;2023-12-29T01:12:27;11.20;79.80
30459;DHT22;74163;50.912;6.918;2023-12-29T01:12:59;11.20;79.90
30459;DHT22;74163;50.912;6.918;2023-12-29T01:13:31;11.20;80.00
30459;DHT22;74163;50.912;6.918;2023-12-29T01:14:03;11.20;80.10
30459;DHT22;74163;50.912;6.918;2023-12-29T01:14:35;11.10;80.00
30459;DHT22;74163;50.912;6.918;2023-12-29T01:15:08;11.10;80.00
30459;DHT22;74163;50.912;6.918;2023-12-29T01:15:40;11.10;80.10
30459;DHT22;74163;50.912;6.918;2023-12-29T01:16:12;11.20;80.10
30459;DHT22;74163;50.912;6.918;2023-12-29T01:16:44;11.10;80.00
30459;DHT22;74163;50.912;6.918;2023-12-29T01:17:16;11.10;80.00
30459;DHT22;74163;50.912;6.918;2023-12-29T01:17:48;11.10;80.10
30459;DHT22;74163;50.912;6.918;2023-12-29T01:18:21;11.10;80.60
30459;DHT22;74163;50.912;6.918;2023-12-29T01:18:53;11.20;80.20
30459;DHT22;74163;50.912;6.918;2023-12-29T01:19:26;11.10;80.20
30459;DHT22;74163;50.912;6.918;2023-12-29T01:19:57;11.10;80.30
30459;DHT22;74163;50.912;6.918;2023-12-29T01:20:29;11.10;80.30
30459;DHT22;74163;50.912;6.918;2023-12-29T01:21:01;11.10;80.20
30459;DHT22;74163;50.912;6.918;2023-12-29T01:21:33;11.10;80.30
30459;DHT22;74163;50.912;6.918;2023-12-29T01:22:05;11.10;80.30
30459;DHT22;74163;50.912;6.918;2023-12-29T01:22:37;11.10;80.30
30459;DHT22;74163;50.912;6.918;2023-12-29T01:23:09;11.10;80.40
30459;DHT22;74163;50.912;6.918;2023-12-29T01:23:41;11.10;80.30
30459;DHT22;74163;50.912;6.918;2023-12-29T01:24:12;11.10;80.50
30459;DHT22;74163;50.912;6.918;2023-12-29T01:24:47;11.10;80.60
30459;DHT22;74163;50.912;6.918;2023-12-29T01:25:20;11.10;80.60
30459;DHT22;74163;50.912;6.918;2023-12-29T01:25:52;11.10;80.60
30459;DHT22;74163;50.912;6.918;2023-12-29T01:26:23;11.10;80.50
30459;DHT22;74163;50.912;6.918;2023-12-29T01:26:56;11.10;80.60
30459;DHT22;74163;50.912;6.918;2023-12-29T01:27:29;11.10;80.60
30459;DHT22;74163;50.912;6.918;2023-12-29T01:28:01;11.10;80.70
30459;DHT22;74163;50.912;6.918;2023-12-29T01:28:34;11.10;80.70
30459;DHT22;74163;50.912;6.918;2023-12-29T01:29:06;11.10;80.70
30459;DHT22;74163;50.912;6.918;2023-12-29T01:29:38;11.10;80.70
30459;DHT22;74163;50.912;6.918;2023-12-29T01:30:12;11.10;80.80
30459;DHT22;74163;50.912;6.918;2023-12-29T01:30:44;11.10;80.80
30459;DHT22;74163;50.912;6.918;2023-12-29T01:31:16;11.00;80.80
30459;DHT22;74163;50.912;6.918;2023-12-29T01:31:48;11.00;80.80
30459;DHT22;74163;50.912;6.918;2023-12-29T01:32:21;11.00;80.90
30459;DHT22;74163;50.912;6.918;2023-12-29T01:32:54;11.00;81.00
30459;DHT22;74163;50.912;6.918;2023-12-29T01:33:27;11.00;81.00
30459;DHT22;74163;50.912;6.918;2023-12-29T01:33:59;11.00;81.10
30459;DHT22;74163;50.912;6.918;2023-12-29T01:34:32;11.00;81.20
30459;DHT22;74163;50.912;6.918;2023-12-29T01:35:04;11.00;81.30
30459;DHT22;74163;50.912;6.918;2023-12-29T01:35:38;11.00;81.30
30459;DHT22;74163;50.912;6.918;2023-12-29T01:36:17;11.00;81.50
30459;DHT22;74163;50.912;6.918;2023-12-29T01:36:56;10.90;81.50
30459;DHT22;74163;50.912;6.918;2023-12-29T01:37:27;10.90;81.60
30459;DHT22;74163;50.912;6.918;2023-12-29T01:37:59;10.90;81.60
30459;DHT22;74163;50.912;6.918;2023-12-29T01:38:31;11.00;81.80
30459;DHT22;74163;50.912;6.918;2023-12-29T01:39:05;10.80;81.80
30459;DHT22;74163;50.912;6.918;2023-12-29T01:39:36;10.80;82.00
30459;DHT22;74163;50.912;6.918;2023-12-29T01:40:09;10.80;82.00
30459;DHT22;74163;50.912;6.918;2023-12-29T01:40:44;10.80;82.10
30459;DHT22;74163;50.912;6.918;2023-12-29T01:41:19;10.80;82.30
30459;DHT22;74163;50.912;6.918;2023-12-29T01:41:51;10.80;82.30
30459;DHT22;74163;50.912;6.918;2023-12-29T01:42:23;10.80;82.30
30459;DHT22;74163;50.912;6.918;2023-12-29T01:42:55;10.80;82.40
30459;DHT22;74163;50.912;6.918;2023-12-29T01:43:27;10.80;82.50
30459;DHT22;74163;50.912;6.918;2023-12-29T01:44:19;10.80;82.50
30459;DHT22;74163;50.912;6.918;2023-12-29T01:44:51;10.90;82.60
30459;DHT22;74163;50.912;6.918;2023-12-29T01:45:24;10.90;82.50
30459;DHT22;74163;50.912;6.918;2023-12-29T01:45:56;10.90;82.40
30459;DHT22;74163;50.912;6.918;2023-12-29T01:46:31;10.90;82.40
30459;DHT22;74163;50.912;6.918;2023-12-29T01:47:05;10.90;82.40
30459;DHT22;74163;50.912;6.918;2023-12-29T01:47:41;10.90;82.40
30459;DHT22;74163;50.912;6.918;2023-12-29T01:48:14;10.90;82.50
30459;DHT22;74163;50.912;6.918;2023-12-29T01:48:47;10.90;82.50
30459;DHT22;74163;50.912;6.918;2023-12-29T01:49:20;11.00;82.50
30459;DHT22;74163;50.912;6.918;2023-12-29T01:49:53;10.90;82.30
30459;DHT22;74163;50.912;6.918;2023-12-29T01:50:25;10.90;82.30
30459;DHT22;74163;50.912;6.918;2023-12-29T01:50:58;11.00;82.30
30459;DHT22;74163;50.912;6.918;2023-12-29T01:51:30;11.00;82.30
30459;DHT22;74163;50.912;6.918;2023-12-29T01:52:04;10.90;82.30
30459;DHT22;74163;50.912;6.918;2023-12-29T01:52:36;11.00;82.40
30459;DHT22;74163;50.912;6.918;2023-12-29T01:53:08;11.00;82.40
30459;DHT22;74163;50.912;6.918;2023-12-29T01:53:40;11.00;82.30
30459;DHT22;74163;50.912;6.918;2023-12-29T01:54:20;11.00;82.30
30459;DHT22;74163;50.912;6.918;2023-12-29T01:54:52;11.00;82.30
30459;DHT22;74163;50.912;6.918;2023-12-29T01:55:26;11.00;82.40
30459;DHT22;74163;50.912;6.918;2023-12-29T01:55:58;11.00;82.30
30459;DHT22;74163;50.912;6.918;2023-12-29T01:56:33;11.00;82.20
30459;DHT22;74163;50.912;6.918;2023-12-29T01:57:05;11.00;82.20
30459;DHT22;74163;50.912;6.918;2023-12-29T01:57:37;11.00;82.20
30459;DHT22;74163;50.912;6.918;2023-12-29T01:58:09;11.00;82.20
30459;DHT22;74163;50.912;6.918;2023-12-29T01:58:41;11.00;82.40
30459;DHT22;74163;50.912;6.918;2023-12-29T01:59:13;11.00;82.50
30459;DHT22;74163;50.912;6.918;2023-12-29T01:59:56;11.00;82.50
30459;DHT22;74163;50.912;6.918;2023-12-29T02:00:27;11.00;82.30
30459;DHT22;74163;50.912;6.918;2023-12-29T02:01:00;11.00;82.20
30459;DHT22;74163;50.912;6.918;2023-12-29T02:01:33;11.00;82.30
30459;DHT22;74163;50.912;6.918;2023-12-29T02:02:06;11.10;82.40
30459;DHT22;74163;50.912;6.918;2023-12-29T02:02:39;11.10;82.30
30459;DHT22;74163;50.912;6.918;2023-12-29T02:03:11;11.10;82.30
30459;DHT22;74163;50.912;6.918;2023-12-29T02:03:43;11.10;82.30
30459;DHT22;74163;50.912;6.918;2023-12-29T02:04:18;11.10;82.20
30459;DHT22;74163;50.912;6.918;2023-12-29T02:04:50;11.10;82.10
30459;DHT22;74163;50.912;6.918;2023-12-29T02:05:23;11.10;82.20
30459;DHT22;74163;50.912;6.918;2023-12-29T02:05:57;11.10;82.20
30459;DHT22;74163;50.912;6.918;2023-12-29T02:06:31;11.10;82.20
30459;DHT22;74163;50.912;6.918;2023-12-29T02:07:04;11.20;82.20
30459;DHT22;74163;50.912;6.918;2023-12-29T02:07:36;11.10;82.10
30459;DHT22;74163;50.912;6.918;2023-12-29T02:08:08;11.10;82.10
30459;DHT22;74163;50.912;6.918;2023-12-29T02:08:42;11.20;82.00
30459;DHT22;74163;50.912;6.918;2023-12-29T02:09:15;11.20;81.90
30459;DHT22;74163;50.912;6.918;2023-12-29T02:09:48;11.20;81.70
30459;DHT22;74163;50.912;6.918;2023-12-29T02:10:21;11.20;81.80
30459;DHT22;74163;50.912;6.918;2023-12-29T02:10:53;11.20;81.80
30459;DHT22;74163;50.912;6.918;2023-12-29T02:11:26;11.20;81.70
30459;DHT22;74163;50.912;6.918;2023-12-29T02:11:58;11.20;81.60
30459;DHT22;74163;50.912;6.918;2023-12-29T02:12:30;11.20;81.60
30459;DHT22;74163;50.912;6.918;2023-12-29T02:13:03;11.20;81.70
30459;DHT22;74163;50.912;6.918;2023-12-29T02:13:35;11.20;81.60
30459;DHT22;74163;50.912;6.918;2023-12-29T02:14:07;11.20;81.70
30459;DHT22;74163;50.912;6.918;2023-12-29T02:14:39;11.20;81.90
30459;DHT22;74163;50.912;6.918;2023-12-29T02:15:12;11.20;81.60
30459;DHT22;74163;50.912;6.918;2023-12-29T02:15:45;11.20;81.60
30459;DHT22;74163;50.912;6.918;2023-12-29T02:16:22;11.20;81.50
30459;DHT22;74163;50.912;6.918;2023-12-29T02:17:04;11.20;81.30
30459;DHT22;74163;50.912;6.918;2023-12-29T02:17:40;11.20;81.40
30459;DHT22;74163;50.912;6.918;2023-12-29T02:18:15;11.20;81.50
30459;DHT22;74163;50.912;6.918;2023-12-29T02:18:50;11.20;81.50
30459;DHT22;74163;50.912;6.918;2023-12-29T02:19:38;11.20;81.40
30459;DHT22;74163;50.912;6.918;2023-12-29T02:20:11;11.20;81.50
30459;DHT22;74163;50.912;6.918;2023-12-29T02:20:44;11.20;81.40
30459;DHT22;74163;50.912;6.918;2023-12-29T02:21:16;11.20;81.40
30459;DHT22;74163;50.912;6.918;2023-12-29T02:21:47;11.20;81.40
30459;DHT22;74163;50.912;6.918;2023-12-29T02:22:19;11.20;81.40
30459;DHT22;74163;50.912;6.918;2023-12-29T02:22:52;11.20;81.30
30459;DHT22;74163;50.912;6.918;2023-12-29T02:23:24;11.20;81.40
30459;DHT22;74163;50.912;6.918;2023-12-29T02:23:56;11.20;81.50
30459;DHT22;74163;50.912;6.918;2023-12-29T02:24:28;11.20;81.40
30459;DHT22;74163;50.912;6.918;2023-12-29T02:25:01;11.20;81.50
30459;DHT22;74163;50.912;6.918;2023-12-29T02:25:33;11.20;81.60
30459;DHT22;74163;50.912;6.918;2023-12-29T02:26:08;11.20;81.70
30459;DHT22;74163;50.912;6.918;2023-12-29T02:26:44;11.20;81.60
30459;DHT22;74163;50.912;6.918;2023-12-29T02:27:26;11.20;81.60
30459;DHT22;74163;50.912;6.918;2023-12-29T02:28:06;11.20;81.70
30459;DHT22;74163;50.912;6.918;2023-12-29T02:28:45;11.20;81.70
30459;DHT22;74163;50.912;6.918;2023-12-29T02:29:20;11.20;81.70
30459;DHT22;74163;50.912;6.918;2023-12-29T02:30:00;11.30;81.80
30459;DHT22;74163;50.912;6.918;2023-12-29T02:30:38;11.20;81.60
30459;DHT22;74163;50.912;6.918;2023-12-29T02:31:19;11.20;81.60
30459;DHT22;74163;50.912;6.918;2023-12-29T02:31:53;11.20;81.60
30459;DHT22;74163;50.912;6.918;2023-12-29T02:32:29;11.30;81.60
30459;DHT22;74163;50.912;6.918;2023-12-29T02:33:05;11.20;81.40
30459;DHT22;74163;50.912;6.918;2023-12-29T02:33:40;11.20;81.40
30459;DHT22;74163;50.912;6.918;2023-12-29T02:34:14;11.20;81.20
30459;DHT22;74163;50.912;6.918;2023-12-29T02:34:48;11.30;81.30
30459;DHT22;74163;50.912;6.918;2023-12-29T02:35:23;11.30;81.30
30459;DHT22;74163;50.912;6.918;2023-12-29T02:35:59;11.30;81.40
30459;DHT22;74163;50.912;6.918;2023-12-29T02:36:32;11.30;81.50
30459;DHT22;74163;50.912;6.918;2023-12-29T02:37:04;11.30;81.50
30459;DHT22;74163;50.912;6.918;2023-12-29T02:37:37;11.30;81.50
30459;DHT22;74163;50.912;6.918;2023-12-29T02:38:11;11.30;81.40
30459;DHT22;74163;50.912;6.918;2023-12-29T02:38:43;11.30;81.30
30459;DHT22;74163;50.912;6.918;2023-12-29T02:39:16;11.30;81.20
30459;DHT22;74163;50.912;6.918;2023-12-29T02:39:48;11.30;81.30
30459;DHT22;74163;50.912;6.918;2023-12-29T02:40:21;11.30;81.40
30459;DHT22;74163;50.912;6.918;2023-12-29T02:40:55;11.40;81.30
30459;DHT22;74163;50.912;6.918;2023-12-29T02:41:26;11.30;81.10
30459;DHT22;74163;50.912;6.918;2023-12-29T02:41:58;11.30;81.10
30459;DHT22;74163;50.912;6.918;2023-12-29T02:42:30;11.30;81.00
30459;DHT22;74163;50.912;6.918;2023-12-29T02:43:02;11.30;80.80
30459;DHT22;74163;50.912;6.918;2023-12-29T02:43:34;11.30;80.80
30459;DHT22;74163;50.912;6.918;2023-12-29T02:44:08;11.40;80.80
30459;DHT22;74163;50.912;6.918;2023-12-29T02:44:40;11.40;81.20
30459;DHT22;74163;50.912;6.918;2023-12-29T02:45:11;11.40;80.70
30459;DHT22;74163;50.912;6.918;2023-12-29T02:45:43;11.40;80.50
30459;DHT22;74163;50.912;6.918;2023-12-29T02:46:16;11.40;80.50
30459;DHT22;74163;50.912;6.918;2023-12-29T02:46:49;11.40;80.40
30459;DHT22;74163;50.912;6.918;2023-12-29T02:47:22;11.40;80.30
30459;DHT22;74163;50.912;6.918;2023-12-29T02:47:54;11.30;80.40
30459;DHT22;74163;50.912;6.918;2023-12-29T02:48:26;11.40;80.80
30459;DHT22;74163;50.912;6.918;2023-12-29T02:48:58;11.30;80.80
30459;DHT22;74163;50.912;6.918;2023-12-29T02:49:30;11.40;80.80
30459;DHT22;74163;50.912;6.918;2023-12-29T02:50:03;11.30;80.70
30459;DHT22;74163;50.912;6.918;2023-12-29T02:50:35;11.30;80.60
30459;DHT22;74163;50.912;6.918;2023-12-29T02:51:07;11.30;80.60
30459;DHT22;74163;50.912;6.918;2023-12-29T02:51:39;11.30;80.80
30459;DHT22;74163;50.912;6.918;2023-12-29T02:52:11;11.30;80.60
30459;DHT22;74163;50.912;6.918;2023-12-29T02:52:43;11.30;80.60
30459;DHT22;74163;50.912;6.918;2023-12-29T02:53:15;11.30;80.60
30459;DHT22;74163;50.912;6.918;2023-12-29T02:53:47;11.40;80.70
30459;DHT22;74163;50.912;6.918;2023-12-29T02:54:19;11.40;80.80
30459;DHT22;74163;50.912;6.918;2023-12-29T02:54:51;11.40;80.70
30459;DHT22;74163;50.912;6.918;2023-12-29T02:55:24;11.50;80.50
30459;DHT22;74163;50.912;6.918;2023-12-29T02:55:56;11.40;80.80
30459;DHT22;74163;50.912;6.918;2023-12-29T02:56:28;11.40;81.00
30459;DHT22;74163;50.912;6.918;2023-12-29T02:57:00;11.40;81.10
30459;DHT22;74163;50.912;6.918;2023-12-29T02:57:31;11.40;81.40
30459;DHT22;74163;50.912;6.918;2023-12-29T02:58:04;11.30;81.50
30459;DHT22;74163;50.912;6.918;2023-12-29T02:58:36;11.30;81.70
30459;DHT22;74163;50.912;6.918;2023-12-29T02:59:08;11.30;81.90
30459;DHT22;74163;50.912;6.918;2023-12-29T02:59:40;11.30;81.90
30459;DHT22;74163;50.912;6.918;2023-12-29T03:00:12;11.20;81.90
30459;DHT22;74163;50.912;6.918;2023-12-29T03:00:44;11.30;82.10
30459;DHT22;74163;50.912;6.918;2023-12-29T03:01:16;11.30;82.00
30459;DHT22;74163;50.912;6.918;2023-12-29T03:01:48;11.30;82.10
30459;DHT22;74163;50.912;6.918;2023-12-29T03:02:21;11.30;82.00
30459;DHT22;74163;50.912;6.918;2023-12-29T03:02:53;11.30;82.00
30459;DHT22;74163;50.912;6.918;2023-12-29T03:03:25;11.30;81.90
30459;DHT22;74163;50.912;6.918;2023-12-29T03:03:57;11.30;81.80
30459;DHT22;74163;50.912;6.918;2023-12-29T03:04:28;11.30;81.80
30459;DHT22;74163;50.912;6.918;2023-12-29T03:05:01;11.30;81.70
30459;DHT22;74163;50.912;6.918;2023-12-29T03:05:32;11.30;81.60
30459;DHT22;74163;50.912;6.918;2023-12-29T03:06:05;11.30;81.60
30459;DHT22;74163;50.912;6.918;2023-12-29T03:06:36;11.30;81.70
30459;DHT22;74163;50.912;6.918;2023-12-29T03:07:10;11.30;81.80
30459;DHT22;74163;50.912;6.918;2023-12-29T03:07:41;11.30;81.90
30459;DHT22;74163;50.912;6.918;2023-12-29T03:08:13;11.30;81.80
30459;DHT22;74163;50.912;6.918;2023-12-29T03:08:45;11.30;81.80
30459;DHT22;74163;50.912;6.918;2023-12-29T03:09:17;11.30;81.80
30459;DHT22;74163;50.912;6.918;2023-12-29T03:09:49;11.30;81.60
30459;DHT22;74163;50.912;6.918;2023-12-29T03:10:21;11.30;81.70
30459;DHT22;74163;50.912;6.918;2023-12-29T03:10:54;11.40;81.70
30459;DHT22;74163;50.912;6.918;2023-12-29T03:11:26;11.40;81.70
30459;DHT22;74163;50.912;6.918;2023-12-29T03:11:58;11.40;81.60
30459;DHT22;74163;50.912;6.918;2023-12-29T03:12:29;11.40;81.50
30459;DHT22;74163;50.912;6.918;2023-12-29T03:13:01;11.40;81.40
30459;DHT22;74163;50.912;6.918;2023-12-29T03:13:33;11.50;81.30
30459;DHT22;74163;50.912;6.918;2023-12-29T03:14:05;11.50;81.20
30459;DHT22;74163;50.912;6.918;2023-12-29T03:14:37;11.50;81.20
30459;DHT22;74163;50.912;6.918;2023-12-29T03:15:11;11.50;81.10
30459;DHT22;74163;50.912;6.918;2023-12-29T03:15:43;11.50;81.20
30459;DHT22;74163;50.912;6.918;2023-12-29T03:16:15;11.50;81.40
30459;DHT22;74163;50.912;6.918;2023-12-29T03:16:47;11.50;81.40
30459;DHT22;74163;50.912;6.918;2023-12-29T03:17:19;11.50;81.40
30459;DHT22;74163;50.912;6.918;2023-12-29T03:17:51;11.50;81.50
30459;DHT22;74163;50.912;6.918;2023-12-29T03:18:23;11.50;81.40
30459;DHT22;74163;50.912;6.918;2023-12-29T03:18:55;11.50;81.50
30459;DHT22;74163;50.912;6.918;2023-12-29T03:19:27;11.50;81.60
30459;DHT22;74163;50.912;6.918;2023-12-29T03:19:59;11.50;81.60
30459;DHT22;74163;50.912;6.918;2023-12-29T03:20:31;11.50;81.50
30459;DHT22;74163;50.912;6.918;2023-12-29T03:21:03;11.50;81.60
30459;DHT22;74163;50.912;6.918;2023-12-29T03:21:36;11.50;81.50
30459;DHT22;74163;50.912;6.918;2023-12-29T03:22:08;11.40;81.50
30459;DHT22;74163;50.912;6.918;2023-12-29T03:22:40;11.40;81.50
30459;DHT22;74163;50.912;6.918;2023-12-29T03:23:12;11.40;81.50
30459;DHT22;74163;50.912;6.918;2023-12-29T03:23:44;11.40;81.50
30459;DHT22;74163;50.912;6.918;2023-12-29T03:24:16;11.40;81.40
30459;DHT22;74163;50.912;6.918;2023-12-29T03:24:48;11.50;81.50
30459;DHT22;74163;50.912;6.918;2023-12-29T03:25:20;11.50;81.50
30459;DHT22;74163;50.912;6.918;2023-12-29T03:25:56;11.50;81.60
30459;DHT22;74163;50.912;6.918;2023-12-29T03:26:28;11.50;81.70
30459;DHT22;74163;50.912;6.918;2023-12-29T03:26:59;11.50;81.40
30459;DHT22;74163;50.912;6.918;2023-12-29T03:27:32;11.50;81.50